Kezdőlap
METAR-TAF:

METAR-TAF

Repülőterek :

Atyrau, Kazahsztán

földrajzi szélesség: 47-07-19N, földrajzi hosszúság: 051-49-17E, magasság: -22 m

Jelenlegi meteorológiai megfigyelések

A jelentés 12 perccel ezelõtt készült, 13:30 UTC
Délkeleti szél 12 kt
Hőmérséklet 13°C
Páratartalom 28%
Légköri nyomás 1018 hPa
Látótávolság 10 km, vagy több
felhőtlen 1500 m magasságban, és nincs gomolyfelhõ

METAR: UATG 311330Z 14006MPS CAVOK 13/M05 Q1018 R14/CLRD70 NOSIG RMK QFE766/1021

Idő: 19:42 (13:42 UTC)

Előrejelzés

A jelentés 2 órával és 40 perccel ezelõtt készült, 11:02 UTC
Az előrejelzés 31-én 12 óra UTC és 01-én 12 óra UTC között érvényes
Délkeleti szél 21 kt
Látótávolság 10 km, vagy több
Szórványos felhőzet 3300 lábon, Cumulonimbus.
31-én 14 óra UTC és 31-én 16 óra UTC között fokozatosan kialakuló
Kelet-délkeleti szél 12 kt

TAF: UATG 311102Z 3112/0112 14011MPS 9999 SCT033CB TX14/0111Z TN04/0102Z BECMG 3114/3116 12006MPS

Meteorológiai megfigyelések és előrejelzések több, mint 4000 repülőtéren (METAR és TAF jelentéseket).

A térképen piros és sárga pontok jelzik az elérhető meteorológiai állomásokat.

Mozgassa az egeret a pont fölött, hogy megjelenjen az állomás neve.

Azután kattintson az időjárási megfigyelések és előrejelzések megtekintéséhez.

A térkép megváltoztatása: kattintson a fekete keresztel jelölt zöld gombra ráközelítéshez, a vonallal jelölt zöld gombra távolításhoz, vagy a zöld nyilakra a szomszédos térképek eléréséhez.


METAR-TAF: